WEATHER DATA

YESTERDAY
Time Temp. Dewp. Hum. Bar.
00:05 2.4 2.4 100 998.2
00:15 2.7 2.7 100 998
00:26 2.7 2.7 100 998.1
00:36 2.9 2.9 100 997.8
00:46 3 3 100 997.9
00:56 3.3 3.3 100 997.6
01:06 3.4 3.4 100 997.6
01:16 3.5 3.5 100 997.5
01:26 3.5 3.5 100 997.4
01:37 3.5 3.5 100 997.4
01:47 3.6 3.6 100 997.5
01:57 3.6 3.6 100 997.5
02:17 3.9 3.9 100 997.5
02:27 4 4 100 997.5
02:37 4.1 4.1 100 997.6
02:47 4.1 4.1 100 997.5
02:58 4.2 4.2 100 997.6
03:08 4.2 4.2 100 997.6
03:17 4.2 4.2 100 997.7
03:28 4.2 4.2 100 997.7
03:38 4.1 4 99 997.9
03:48 4 3.9 99 997.8
03:58 4 4 100 998
04:09 3.9 3.9 100 998.1
04:19 3.9 3.9 100 998.2
04:28 3.9 3.9 100 998.3
04:38 3.9 3.9 100 998.3
04:49 3.9 3.9 100 998.5
04:59 3.9 3.8 99 998.6
05:09 3.8 3.5 98 998.6
05:19 3.8 3.5 98 998.8
05:29 3.8 3.5 98 998.9
05:39 3.7 3.3 97 999.2
05:49 3.6 3.2 97 999.4
06:00 3.4 3 97 999.6
06:10 3.3 2.9 97 999.9
06:20 3.2 2.8 97 1000.1
06:30 3 2.6 97 1000.3
06:40 2.8 2.4 97 1000.4
06:50 2.7 2.4 98 1000.7
07:00 2.7 2.4 98 1000.9
07:11 2.8 2.5 98 1000.9
07:21 2.9 2.6 98 1001
07:31 2.9 2.6 98 1001.3
07:40 3 2.7 98 1001.4
07:51 3 2.7 98 1001.5
08:01 3 2.7 98 1001.7
08:11 3.1 2.7 97 1001.9
08:21 3.1 2.7 97 1002
08:32 3 2.3 95 1002.3
08:41 2.8 2.2 96 1002.8
08:51 2.5 1.6 94 1003.5
09:02 2.2 1.2 93 1003.6
09:12 1.9 1 94 1004.1
09:22 1.8 0.9 94 1004.4
09:32 1.7 0.7 93 1004.6
09:43 1.6 0.3 91 1005
09:52 1.4 -0.3 88 1005.3
10:02 1.3 -0.1 90 1005.4
10:13 1.3 -0.3 89 1005.8
10:23 1.5 -0.2 88 1005.5
10:33 1.4 -0.6 86 1005.8
10:43 1.5 -0.8 84 1005.7
10:53 1.5 -0.9 83 1005.5
11:03 1.6 -1 82 1005.7
11:13 1.7 -1.2 80 1005.9
11:23 1.8 -1.4 78 1005.8
11:34 2 -1.4 77 1006
11:44 2.1 -1.5 76 1006.2
11:53 2.2 -1.7 74 1006.3
12:04 2.2 -1.7 74 1006.4
12:14 2.3 -2 72 1006.6
12:24 2.4 -1.5 74 1006.7
12:34 2.6 -1.7 72 1006.8
12:45 2.6 -1.4 74 1006.8
12:55 2.8 -1.5 72 1006.9
13:04 3 -1.5 71 1006.9
13:15 3.1 -1.6 70 1007
13:25 3.4 -1.5 69 1007.1
13:35 3.6 -1.2 70 1007.1
13:45 4 -1.4 67 1007.1
13:56 4.1 -1.8 64 1007.1
14:06 4.1 -1.7 65 1007.1
14:15 4.1 -1.8 64 1007.5
14:25 4.2 -1.6 65 1007.8
14:36 4.1 -1.7 65 1008
14:46 3.8 -1.9 65 1008.1
14:56 3.5 -1.8 67 1008.4
15:06 3.4 -1.7 68 1008.7
15:16 3.2 -1.7 69 1008.9
15:26 3.1 -2 68 1009
15:36 3.1 -1.6 70 1009.4
15:47 3 -1.9 69 1009.6
15:57 2.9 -1.8 70 1009.8
16:07 2.7 -1.8 71 1009.7
16:17 2.5 -2 71 1009.9
16:27 2.4 -2 71 1010.3
16:37 2.3 -2 72 1010.4
16:47 2.2 -1.9 73 1010.7
16:58 2.1 -2 73 1010.8
17:08 1.9 -2 74 1010.7
17:18 1.8 -1.9 75 1010.9
17:27 1.6 -1.9 76 1010.9
17:38 1.4 -1.9 77 1010.7
17:48 1.3 -2 77 1011.2
17:58 1.2 -1.9 78 1011.3
18:19 1.1 -2 78 1011.7
18:29 1.1 -2 78 1011.9
18:38 1.1 -2 78 1012.2
18:49 1.1 -2 78 1012
18:59 1.1 -2 78 1012.1
19:09 1.1 -2 78 1012.1
19:19 1.1 -2 78 1012.4
19:30 1.1 -2 78 1012.6
19:39 1.1 -2 78 1012.6
19:49 1.1 -2 78 1012.6
19:59 1 -2.1 78 1012.3
20:10 0.8 -2.3 78 1012.1
20:20 0.8 -2.1 79 1012.3
20:30 0.7 -2.2 79 1012.6
20:40 0.7 -2.2 79 1012.6
20:50 0.7 -2.2 79 1012.6
21:00 0.6 -2.2 80 1012.7
21:10 0.4 -2.3 80 1012.9
21:21 0.2 -2.4 81 1013
21:31 0.2 -2.2 82 1013
21:41 0 -2.4 82 1013
22:01 0 -2.2 83 1013.3
22:20 -0.1 -2.3 83 1013.4
22:29 -0.1 -2.2 84 1013.5
22:39 -0.1 -2.2 84 1013.6
22:50 -0.1 -2.2 84 1013.7
23:00 -0.1 -2.2 84 1013.6
23:20 -0.2 -2.3 84 1013.6
23:30 -0.3 -2.4 84 1013.7
23:50 -0.3 -2.3 85 1013.7

DAY STATISTIC

2019-01-17
TEMPERATURE
AVERAGE
2.4
HIGH
4.2
02:58
LOW
-0.3
23:30
PRESSURE
AVERAGE
1005.5
HIGH
1013.7
22:50
LOW
997.4
01:26
DEWPOINT
AVERAGE
0.2
HIGH
4.2
02:58
LOW
-2.4
21:21
HUMIDITY
AVERAGE
86
HIGH
100
00:05
LOW
64
13:56
TEMPERATURE (°C)
LOW
-0.3
HIGH
4.2
AVERAGE
2.4
PRESSURE (hpa)
LOW
997.4
HIGH
1013.7
AVERAGE
1005.5
DEVICE